Ana Sayfa
METAR-TAF:

METAR-TAF

Havaalanları :

Carnarvon, Avustralya

Enlem: 24-52-50S, Boylam: 113-40-20E, yükseklik: 4 m

Güncel hava durumu gözlemi

Rapor saat 11:00 UTC de 49 dakika önce yapıldı.
Rüzgar kuzeybatıdan 12 kt
Sıcaklık 21°C
Nem 94%
Basınç 1015 hPa
Görüş mesafesi 10 km veya daha fazla
4000 ft yükseklikte parçalı çok bulutlu
5200 ft yükseklikte çok bulutlu

METAR: YCAR 261100Z AUTO 31012KT 9999 // BKN040 OVC052 21/20 Q1015

Saat: 19:49 (11:49 UTC)


TAF: eksik

4.000'den fazla havaalanı için hava durumu gözlemleri ve tahminleri (METAR ve TAF raporları).

Kullanılabilir istasyonlar harita üzerinde sarı ve kırmızı noktalarla gösterilir.

İstasyonun adını görmek için fareyi noktanın üzerinde gezdirin.

Sonrasında hava gözlem ve tahminlerini görmek için tıklayın.

Haritayı değiştirmek için: yaklaştırmak için siyah artı işaretli yeşil düğmeye ve uzaklaştırmak için de eksi işaretli düğmeye hızla tıklayın; bitişik haritalar için yeşil okları kullanın.


METAR-TAF: